ADDS METAR Data INFO
IDs: Format: Raw Decoded Include TAF

Data at: 1810 UTC 14 Aug 2018

PAOM 141753Z 36019G27KT 10SM CLR 08/02 A2976 RMK PK WND 36027/1745 SLP076 T00780017 10083 20050 51007 VIA AUTODIAL
PAOM 141653Z 36015KT 10SM CLR 07/02 A2975 RMK AO2 SLP074 T00720017
PAOM 141553Z 02015KT 10SM CLR 07/02 A2974 RMK AO2 SLP072 T00670017
PAOM 141453Z AUTO 35009KT 10SM CLR 05/02 A2974 RMK AO2 SLP069 T00500017 51015 TSNO
PAOM 141353Z AUTO 35009KT 10SM CLR 07/02 A2973 RMK AO2 SLP067 T00670022 TSNO
PAOM 141253Z AUTO 34009KT 10SM CLR 06/03 A2971 RMK AO2 SLP060 T00610028 TSNO
PAOM 141153Z AUTO 36016KT 10SM CLR 08/03 A2969 RMK AO2 SLP055 T00780028 10144 20072 51017 TSNO
PAOM 141053Z AUTO 01016G25KT 10SM CLR 09/03 A2968 RMK AO2 SLP051 T00940033 TSNO
PAOM 140953Z AUTO VRB04KT 10SM CLR 09/04 A2967 RMK AO2 SLP047 T00940044 TSNO
PAOM 140853Z AUTO 01018KT 10SM FEW065 11/06 A2964 RMK AO2 SLP038 T01110056 401720106 51019 TSNO
PAOM 140753Z AUTO 36015KT 10SM SCT070 OVC090 12/07 A2963 RMK AO2 PK WND 36027/0741 CIG 075 NE SLP033 T01170067 TSNO
PAOM 140653Z AUTO 36016KT 10SM BKN090 13/08 A2961 RMK AO2 SLP025 T01280083 TSNO
PAOM 140553Z 36015KT 10SM FEW060 OVC090 14/10 A2959 RMK AO2 SLP019 T01440100 10172 20139 53022
PAOM 140453Z 01015KT 10SM BKN050 OVC100 15/11 A2956 RMK AO2 SLP010 T01500106
PAOM 140353Z 01014KT 10SM OVC050 17/11 A2954 RMK AO2 PK WND 02026/0324 SLP003 T01670111
PAOM 140253Z 02015G20KT 10SM BKN045 OVC055 17/11 A2952 RMK AO2 SLP998 T01670111 53016
PAOM 140153Z 03011KT 10SM BKN045 OVC070 16/12 A2951 RMK AO2 SLP992 T01560117
PAOM 140053Z 03017KT 10SM BKN055 OVC070 15/12 A2949 RMK AO2 SLP987 T01500117
PAOM 132353Z 03016KT 10SM BKN049 OVC060 14/12 A2948 RMK AO2 PK WND 04027/2324 RAB40E50 SLP982 P0000 60000 T01390117 10150 20133 51022
PAOM 132253Z 04016G21KT 10SM BKN040 OVC075 15/11 A2946 RMK AO2 SLP975 T01500111
PAOM 132230Z 03012KT 10SM SCT030 BKN038 OVC075 14/11 A2945 RMK AO2 T01440106
PAOM 132153Z 04011KT 10SM BKN028 OVC036 14/11 A2944 RMK SLP969 T01440106 VIA AUTODIAL
PAOM 132151Z 04012G20KT 10SM BKN028 OVC036 14/11 A2944 RMK VIA AUTODIAL
PAOM 132053Z 02017KT 10SM FEW027 FEW043 OVC070 15/11 A2941 RMK AO2 SLP960 T01500111 53018
PAOM 131953Z 03013KT 10SM FEW041 OVC060 14/11 A2939 RMK AO2 SLP953 T01390111
PAOM 131853Z 04010KT 10SM SCT038 BKN060 OVC070 14/11 A2937 RMK SLP947 T01390111 VIA AUTODIAL
PAOM 131753Z 03008KT 10SM FEW029 OVC036 13/11 A2936 RMK AO2 SLP942 T01330111 10133 20122 53015
PAOM 131653Z 33009KT 10SM FEW034 BKN050 OVC060 13/11 A2935 RMK AO2 SLP937 T01330106
PAOM 131553Z 03012G19KT 10SM BKN042 BKN050 OVC080 13/11 A2933 RMK AO2 SLP930 T01330106
PAOM 131453Z AUTO 03006KT 10SM BKN041 OVC050 13/11 A2932 RMK AO2 SLP927 T01280106 53014 TSNO
PAOM 131353Z AUTO 03009KT 10SM OVC040 13/11 A2930 RMK AO2 SLP923 T01330106 TSNO
PAOM 131253Z AUTO 03010KT 10SM OVC047 13/11 A2929 RMK AO2 SLP917 T01330111 TSNO
PAOM 131153Z AUTO 03013KT 10SM BKN032 BKN043 OVC050 13/12 A2927 RMK AO2 SLP913 60002 70027 T01330117 10139 20128 51010 TSNO
PAOM 131053Z AUTO 03012KT 10SM BKN036 OVC050 13/12 A2926 RMK AO2 RAE01 SLP909 P0000 T01330117 TSNO
PAOM 130953Z AUTO 03012KT 10SM -RA FEW041 BKN060 OVC080 13/12 A2926 RMK AO2 RAB0859E10B45 SLP907 P0000 T01280117 TSNO
PAOM 130853Z AUTO 04014KT 10SM BKN055 OVC070 13/12 A2924 RMK AO2 RAE42 SLP903 P0002 60002 T01280122 401390117 53014 TSNO
PAOM 130753Z AUTO 04015KT 10SM -RA SCT033 BKN043 OVC075 14/12 A2923 RMK AO2 RAB42 SLP898 P0000 T01390117 TSNO
PAOM 130653Z 03017KT 10SM FEW046 BKN070 OVC085 14/12 A2922 RMK AO2 SLP893 T01390122